createdAt,value
2022-07-29T00:00:28.059Z,93835.77
2022-07-29T00:01:39.060Z,93833.78
2022-07-29T00:02:42.226Z,93837.64
2022-07-29T00:03:45.559Z,93836.08
2022-07-29T00:04:48.655Z,93835.83
2022-07-29T00:05:54.177Z,93837.98
2022-07-29T00:06:57.383Z,93835.89
2022-07-29T00:08:00.476Z,93833.86
2022-07-29T00:09:04.025Z,93833.50
2022-07-29T00:10:07.221Z,93832.56
2022-07-29T00:11:10.359Z,93833.80
2022-07-29T00:12:13.394Z,93830.03
2022-07-29T00:13:17.105Z,93827.28
2022-07-29T00:14:20.265Z,93823.84
2022-07-29T00:15:23.341Z,93823.30
2022-07-29T00:16:26.511Z,93819.04
2022-07-29T00:17:29.830Z,93825.35
2022-07-29T00:18:33.375Z,93829.92
2022-07-29T00:19:36.658Z,93832.68
2022-07-29T00:20:40.094Z,93818.45
2022-07-29T00:21:43.597Z,93827.98
2022-07-29T00:22:46.826Z,93830.00
2022-07-29T00:23:50.029Z,93829.77
2022-07-29T00:24:53.196Z,93834.13
2022-07-29T00:25:59.150Z,93833.20
2022-07-29T00:27:02.270Z,93831.44
2022-07-29T00:28:05.792Z,93830.98
2022-07-29T00:30:32.045Z,93830.39
2022-07-29T00:31:35.187Z,93832.89
2022-07-29T00:32:38.457Z,93828.96
2022-07-29T00:33:41.896Z,93828.59
2022-07-29T00:35:08.803Z,93830.64
2022-07-29T00:36:12.148Z,93829.55
2022-07-29T00:37:15.367Z,93812.14
2022-07-29T00:38:50.925Z,93828.41
2022-07-29T00:39:54.147Z,93822.63
2022-07-29T00:40:57.318Z,93819.30
2022-07-29T00:42:04.332Z,93825.02
2022-07-29T00:43:07.526Z,93825.98
2022-07-29T00:44:11.642Z,93824.92
2022-07-29T00:45:24.453Z,93825.45
2022-07-29T00:46:28.643Z,93816.42
2022-07-29T00:47:38.872Z,93820.02
2022-07-29T00:48:48.728Z,93817.96
2022-07-29T00:49:51.903Z,93819.72
2022-07-29T00:50:56.068Z,93818.65
2022-07-29T00:51:59.433Z,93818.49
2022-07-29T00:53:06.579Z,93819.31
2022-07-29T00:54:09.883Z,93817.95
2022-07-29T00:55:15.978Z,93819.63
2022-07-29T00:56:19.121Z,93821.24
2022-07-29T00:57:22.278Z,93822.66
2022-07-29T00:58:26.169Z,93825.14
2022-07-29T00:59:35.084Z,93820.55
2022-07-29T01:00:38.724Z,93821.19
2022-07-29T01:01:42.100Z,93821.33
2022-07-29T01:02:46.436Z,93820.44
2022-07-29T01:03:49.496Z,93819.38
2022-07-29T01:04:52.835Z,93816.67
2022-07-29T01:05:56.254Z,93813.55
2022-07-29T01:07:01.794Z,93814.01
2022-07-29T01:08:05.612Z,93816.27
2022-07-29T01:09:08.999Z,93815.34
2022-07-29T01:10:14.376Z,93817.64
2022-07-29T01:11:19.180Z,93817.82
2022-07-29T01:12:29.621Z,93817.66
2022-07-29T01:13:34.460Z,93821.29
2022-07-29T01:14:38.759Z,93823.72
2022-07-29T01:15:49.492Z,93821.80
2022-07-29T01:16:54.589Z,93825.01
2022-07-29T01:18:03.750Z,93824.86
2022-07-29T01:19:38.351Z,93830.27
2022-07-29T01:20:53.130Z,93830.17
2022-07-29T01:22:00.282Z,93832.06
2022-07-29T01:23:28.741Z,93831.95
2022-07-29T01:24:53.976Z,93831.10
2022-07-29T01:26:16.879Z,93831.85
2022-07-29T01:27:24.040Z,93833.45
2022-07-29T01:29:01.402Z,93832.03
2022-07-29T01:30:11.945Z,93835.34
2022-07-29T01:31:25.104Z,93837.77
2022-07-29T01:32:32.773Z,93839.66
2022-07-29T01:33:51.383Z,93839.20
2022-07-29T01:35:08.002Z,93844.48
2022-07-29T01:36:18.739Z,93845.42
2022-07-29T01:37:42.651Z,93847.56
2022-07-29T01:38:55.303Z,93850.03
2022-07-29T01:40:00.960Z,93852.70
2022-07-29T01:41:08.946Z,93847.45
2022-07-29T01:42:29.185Z,93854.60
2022-07-29T01:43:45.397Z,93848.41
2022-07-29T01:44:55.432Z,93853.39
2022-07-29T01:46:04.544Z,93851.20
2022-07-29T01:47:16.907Z,93850.92
2022-07-29T01:48:25.500Z,93849.21
2022-07-29T01:49:32.757Z,93848.11
2022-07-29T01:50:39.666Z,93846.80
2022-07-29T01:51:58.460Z,93848.42
2022-07-29T01:53:08.291Z,93849.27
2022-07-29T01:54:22.519Z,93851.27
2022-07-29T01:55:31.070Z,93853.91
2022-07-29T01:56:36.348Z,93852.16
2022-07-29T01:57:41.632Z,93846.81
2022-07-29T01:58:46.863Z,93849.92
2022-07-29T01:59:52.296Z,93849.63
2022-07-29T02:00:58.628Z,93849.77
2022-07-29T02:02:02.935Z,93848.05
2022-07-29T02:03:12.392Z,93844.10
2022-07-29T02:04:18.565Z,93836.44
2022-07-29T02:05:35.446Z,93836.67
2022-07-29T02:06:42.005Z,93835.17
2022-07-29T02:07:47.512Z,93836.40
2022-07-29T02:08:52.472Z,93842.67
2022-07-29T02:09:58.716Z,93848.37
2022-07-29T02:11:05.655Z,93852.67
2022-07-29T02:12:11.048Z,93852.92
2022-07-29T02:13:16.821Z,93851.26
2022-07-29T02:14:22.690Z,93850.06
2022-07-29T02:15:28.760Z,93847.84
2022-07-29T02:16:34.857Z,93844.55
2022-07-29T02:17:50.120Z,93844.30
2022-07-29T02:18:55.471Z,93842.63
2022-07-29T02:20:03.090Z,93840.54
2022-07-29T02:21:06.693Z,93833.84
2022-07-29T02:22:20.820Z,93836.30
2022-07-29T02:23:25.584Z,93837.32
2022-07-29T02:24:31.042Z,93840.23
2022-07-29T02:25:37.315Z,93835.58
2022-07-29T02:26:44.317Z,93833.59
2022-07-29T02:27:50.211Z,93830.93
2022-07-29T02:28:56.362Z,93832.83
2022-07-29T02:30:01.746Z,93832.47
2022-07-29T02:31:07.853Z,93828.55
2022-07-29T02:32:14.330Z,93822.72
2022-07-29T02:33:18.501Z,93823.09
2022-07-29T02:34:22.421Z,93818.42
2022-07-29T02:35:26.297Z,93818.05
2022-07-29T02:36:31.006Z,93817.09
2022-07-29T02:37:35.012Z,93812.69
2022-07-29T02:38:58.831Z,93812.03
2022-07-29T02:40:03.205Z,93815.54
2022-07-29T02:41:16.424Z,93816.50
2022-07-29T02:42:22.145Z,93817.63
2022-07-29T02:43:27.109Z,93815.59
2022-07-29T02:44:34.478Z,93817.55
2022-07-29T02:45:38.097Z,93818.20
2022-07-29T02:46:47.649Z,93819.82
2022-07-29T02:47:52.036Z,93820.06
2022-07-29T02:49:04.333Z,93820.56
2022-07-29T02:50:14.564Z,93822.70
2022-07-29T02:51:43.370Z,93826.70
2022-07-29T02:52:53.625Z,93821.11
2022-07-29T02:54:05.517Z,93824.00
2022-07-29T02:55:16.194Z,93817.77
2022-07-29T02:56:25.253Z,93821.36
2022-07-29T02:57:53.985Z,93819.92
2022-07-29T02:59:02.200Z,93819.05
2022-07-29T03:00:09.862Z,93821.63
2022-07-29T03:01:21.528Z,93820.52
2022-07-29T03:02:28.241Z,93819.35
2022-07-29T03:03:37.036Z,93815.83
2022-07-29T03:04:42.822Z,93815.07
2022-07-29T03:05:46.040Z,93811.09
2022-07-29T03:06:50.992Z,93809.85
2022-07-29T03:07:59.790Z,93809.78
2022-07-29T03:09:03.324Z,93816.05
2022-07-29T03:10:07.967Z,93813.44
2022-07-29T03:11:18.194Z,93812.48
2022-07-29T03:12:21.660Z,93814.55
2022-07-29T03:13:25.205Z,93815.02
2022-07-29T03:14:29.262Z,93811.33
2022-07-29T03:15:33.105Z,93814.61
2022-07-29T03:16:41.167Z,93815.73
2022-07-29T03:17:44.678Z,93814.22
2022-07-29T03:18:48.630Z,93811.43
2022-07-29T03:19:52.198Z,93812.10
2022-07-29T03:20:56.041Z,93811.75
2022-07-29T03:21:59.975Z,93810.84
2022-07-29T03:23:03.463Z,93813.30
2022-07-29T03:24:10.266Z,93808.52
2022-07-29T03:25:19.203Z,93808.70
2022-07-29T03:26:22.339Z,93809.34
2022-07-29T03:27:25.429Z,93810.55
2022-07-29T03:28:28.524Z,93812.02
2022-07-29T03:29:33.712Z,93811.97
2022-07-29T03:30:37.593Z,93807.36
2022-07-29T03:31:44.051Z,93810.96
2022-07-29T03:32:53.672Z,93809.02
2022-07-29T03:33:57.018Z,93804.52
2022-07-29T03:35:00.039Z,93807.89
2022-07-29T03:36:03.669Z,93810.70
2022-07-29T03:37:07.493Z,93810.29
2022-07-29T03:38:10.681Z,93806.36
2022-07-29T03:39:20.977Z,93809.36
2022-07-29T03:40:52.855Z,93800.45
2022-07-29T03:41:58.411Z,93809.30
2022-07-29T03:43:03.609Z,93807.98
2022-07-29T03:44:08.977Z,93809.15
2022-07-29T03:45:18.853Z,93811.70
2022-07-29T03:46:24.683Z,93813.87
2022-07-29T03:47:49.811Z,93812.48
2022-07-29T03:48:59.675Z,93812.00
2022-07-29T03:50:12.076Z,93809.84
2022-07-29T03:51:15.434Z,93811.02
2022-07-29T03:52:21.842Z,93811.80
2022-07-29T03:53:25.090Z,93807.67
2022-07-29T03:54:28.428Z,93813.14
2022-07-29T03:55:38.859Z,93814.05
2022-07-29T03:56:49.710Z,93819.84
2022-07-29T03:57:53.062Z,93816.39
2022-07-29T03:58:57.295Z,93816.99
2022-07-29T04:00:02.459Z,93815.80
2022-07-29T04:01:06.125Z,93815.84
2022-07-29T04:02:12.151Z,93814.06
2022-07-29T04:03:15.727Z,93813.33
2022-07-29T04:04:19.699Z,93814.33
2022-07-29T04:05:22.970Z,93815.42
2022-07-29T04:06:26.914Z,93814.17
2022-07-29T04:07:30.901Z,93818.19
2022-07-29T04:08:34.704Z,93820.23
2022-07-29T04:09:37.919Z,93819.11
2022-07-29T04:10:40.953Z,93823.16
2022-07-29T04:12:03.451Z,93821.77
2022-07-29T04:13:07.328Z,93823.99
2022-07-29T04:14:10.674Z,93827.35
2022-07-29T04:15:13.827Z,93823.09
2022-07-29T04:16:16.945Z,93823.98
2022-07-29T04:17:20.115Z,93826.94
2022-07-29T04:18:23.404Z,93823.98
2022-07-29T04:19:26.553Z,93825.94
2022-07-29T04:20:29.719Z,93825.23
2022-07-29T04:21:38.488Z,93826.00
2022-07-29T04:22:42.242Z,93822.52
2022-07-29T04:23:53.010Z,93820.40
2022-07-29T04:25:00.343Z,93819.71
2022-07-29T04:26:06.928Z,93817.47
2022-07-29T04:27:11.760Z,93820.23
2022-07-29T04:28:16.086Z,93817.91
2022-07-29T04:29:21.004Z,93820.27
2022-07-29T04:30:24.603Z,93819.33
2022-07-29T04:31:28.152Z,93817.18
2022-07-29T04:32:31.235Z,93815.28
2022-07-29T04:33:37.146Z,93821.95
2022-07-29T04:34:40.187Z,93818.05
2022-07-29T04:35:47.164Z,93824.09
2022-07-29T04:36:53.782Z,93821.92
2022-07-29T04:37:56.990Z,93822.39
2022-07-29T04:39:02.629Z,93824.34
2022-07-29T04:40:06.544Z,93825.37
2022-07-29T04:41:09.891Z,93822.70
2022-07-29T04:42:14.496Z,93818.46
2022-07-29T04:43:22.472Z,93817.42
2022-07-29T04:44:29.126Z,93823.00
2022-07-29T04:45:32.419Z,93818.70
2022-07-29T04:46:36.362Z,93819.05
2022-07-29T04:47:39.504Z,93816.23
2022-07-29T04:48:42.918Z,93821.23
2022-07-29T04:49:48.549Z,93823.05
2022-07-29T04:50:51.796Z,93829.58
2022-07-29T04:51:55.117Z,93826.98
2022-07-29T04:52:58.695Z,93828.80
2022-07-29T04:54:02.784Z,93828.77
2022-07-29T04:55:06.884Z,93832.55
2022-07-29T04:56:10.083Z,93831.90
2022-07-29T04:57:13.090Z,93834.86
2022-07-29T04:58:16.637Z,93837.83
2022-07-29T04:59:19.789Z,93834.14
2022-07-29T05:00:24.253Z,93831.71
2022-07-29T05:01:36.282Z,93836.49
2022-07-29T05:02:39.841Z,93833.63
2022-07-29T05:03:43.371Z,93841.20
2022-07-29T05:04:46.488Z,93835.52
2022-07-29T05:05:49.630Z,93839.52
2022-07-29T05:06:52.795Z,93840.38
2022-07-29T05:07:56.478Z,93843.70
2022-07-29T05:08:59.572Z,93847.05
2022-07-29T05:10:02.703Z,93846.58
2022-07-29T05:11:12.087Z,93843.55
2022-07-29T05:12:17.653Z,93846.67
2022-07-29T05:13:20.769Z,93844.84
2022-07-29T05:14:23.844Z,93846.17
2022-07-29T05:15:27.365Z,93846.65
2022-07-29T05:16:30.450Z,93849.64
2022-07-29T05:17:33.564Z,93850.30
2022-07-29T05:18:36.730Z,93853.41
2022-07-29T05:19:39.932Z,93850.61
2022-07-29T05:20:43.139Z,93849.29
2022-07-29T05:21:46.271Z,93851.66
2022-07-29T05:22:50.043Z,93853.88
2022-07-29T05:23:53.101Z,93854.94
2022-07-29T05:24:56.209Z,93851.79
2022-07-29T05:25:59.346Z,93854.83
2022-07-29T05:27:03.426Z,93856.08
2022-07-29T05:28:06.604Z,93853.80
2022-07-29T05:29:42.595Z,93853.17
2022-07-29T05:30:33.061Z,93850.05
2022-07-29T05:31:36.334Z,93852.83
2022-07-29T05:32:39.442Z,93850.77
2022-07-29T05:33:42.964Z,93849.77
2022-07-29T05:34:51.423Z,93851.33
2022-07-29T05:35:59.946Z,93850.55
2022-07-29T05:37:03.747Z,93851.63
2022-07-29T05:38:06.879Z,93846.16
2022-07-29T05:39:10.649Z,93849.37
2022-07-29T05:40:13.766Z,93848.70
2022-07-29T05:41:16.874Z,93849.45
2022-07-29T05:42:19.976Z,93849.42
2022-07-29T05:43:23.144Z,93852.63
2022-07-29T05:44:26.405Z,93853.85
2022-07-29T05:45:29.651Z,93848.69
2022-07-29T05:46:32.798Z,93852.08
2022-07-29T05:47:36.086Z,93850.17
2022-07-29T05:48:40.145Z,93850.00
2022-07-29T05:49:43.291Z,93850.36
2022-07-29T05:50:46.586Z,93852.49
2022-07-29T05:51:50.479Z,93847.60
2022-07-29T05:52:53.665Z,93852.96
2022-07-29T05:53:56.859Z,93852.94
2022-07-29T05:55:00.264Z,93853.39
2022-07-29T05:56:06.880Z,93851.44
2022-07-29T05:57:15.969Z,93845.70
2022-07-29T05:58:19.430Z,93850.64
2022-07-29T05:59:25.953Z,93849.75
2022-07-29T06:00:31.705Z,93850.00
2022-07-29T06:01:34.942Z,93853.55
2022-07-29T06:02:40.447Z,93855.20
2022-07-29T06:03:44.279Z,93856.59
2022-07-29T06:04:50.171Z,93854.70
2022-07-29T06:05:53.355Z,93852.67
2022-07-29T06:06:56.576Z,93849.89
2022-07-29T06:07:59.688Z,93850.52
2022-07-29T06:09:11.550Z,93850.08
2022-07-29T06:10:15.819Z,93852.36
2022-07-29T06:11:18.913Z,93852.15
2022-07-29T06:12:22.470Z,93848.81
2022-07-29T06:13:26.689Z,93841.03
2022-07-29T06:14:29.887Z,93847.22
2022-07-29T06:15:33.336Z,93847.88
2022-07-29T06:16:36.824Z,93845.60
2022-07-29T06:17:39.983Z,93847.20
2022-07-29T06:19:03.024Z,93846.69
2022-07-29T06:20:07.535Z,93842.40
2022-07-29T06:21:11.375Z,93847.10
2022-07-29T06:22:17.309Z,93845.82
2022-07-29T06:23:21.864Z,93843.42
2022-07-29T06:24:24.950Z,93842.32
2022-07-29T06:25:31.999Z,93849.41
2022-07-29T06:26:39.221Z,93844.55
2022-07-29T06:27:45.839Z,93847.80
2022-07-29T06:28:49.069Z,93851.37
2022-07-29T06:29:53.628Z,93847.23
2022-07-29T06:30:56.854Z,93851.33
2022-07-29T06:32:00.060Z,93858.71
2022-07-29T06:33:04.077Z,93860.36
2022-07-29T06:34:07.732Z,93859.33
2022-07-29T06:35:38.283Z,93857.80
2022-07-29T06:36:37.999Z,93859.44
2022-07-29T06:37:43.009Z,93856.76
2022-07-29T06:38:49.396Z,93854.76
2022-07-29T06:40:14.732Z,93857.34
2022-07-29T06:41:17.936Z,93854.83
2022-07-29T06:42:21.028Z,93855.36
2022-07-29T06:43:24.203Z,93857.96
2022-07-29T06:44:31.680Z,93858.41
2022-07-29T06:45:39.815Z,93853.97
2022-07-29T06:46:43.120Z,93850.71
2022-07-29T06:47:46.279Z,93850.91
2022-07-29T06:48:50.350Z,93849.89
2022-07-29T06:49:54.184Z,93851.97
2022-07-29T06:50:57.456Z,93855.62
2022-07-29T06:52:00.803Z,93856.16
2022-07-29T06:53:04.713Z,93857.73
2022-07-29T06:54:07.846Z,93858.81
2022-07-29T06:55:11.349Z,93857.59
2022-07-29T06:56:28.304Z,93858.38
2022-07-29T06:57:31.624Z,93859.60
2022-07-29T06:58:35.054Z,93859.08
2022-07-29T06:59:38.134Z,93865.18
2022-07-29T07:00:41.735Z,93866.82
2022-07-29T07:01:45.997Z,93868.80
2022-07-29T07:02:49.330Z,93869.52
2022-07-29T07:03:52.489Z,93869.13
2022-07-29T07:04:55.540Z,93865.80
2022-07-29T07:05:59.082Z,93864.23
2022-07-29T07:07:03.763Z,93867.52
2022-07-29T07:08:07.246Z,93866.80
2022-07-29T07:09:10.340Z,93867.29
2022-07-29T07:10:13.628Z,93865.91
2022-07-29T07:11:16.739Z,93867.02
2022-07-29T07:12:20.057Z,93862.77
2022-07-29T07:13:24.689Z,93866.28
2022-07-29T07:14:29.104Z,93869.40
2022-07-29T07:15:39.938Z,93865.45
2022-07-29T07:16:43.329Z,93864.79
2022-07-29T07:17:46.530Z,93857.77
2022-07-29T07:18:49.704Z,93864.54
2022-07-29T07:19:52.770Z,93862.23
2022-07-29T07:20:56.962Z,93867.73
2022-07-29T07:22:00.915Z,93864.95
2022-07-29T07:23:05.739Z,93866.69
2022-07-29T07:24:09.093Z,93863.97
2022-07-29T07:25:13.300Z,93866.79
2022-07-29T07:26:16.768Z,93862.23
2022-07-29T07:27:19.876Z,93865.99
2022-07-29T07:28:24.470Z,93866.30
2022-07-29T07:29:28.337Z,93866.71
2022-07-29T07:30:32.106Z,93867.12
2022-07-29T07:31:35.320Z,93869.45
2022-07-29T07:32:38.753Z,93869.16
2022-07-29T07:33:41.894Z,93871.24
2022-07-29T07:34:45.112Z,93870.70
2022-07-29T07:35:48.582Z,93869.39
2022-07-29T07:36:51.649Z,93868.66
2022-07-29T07:37:56.104Z,93869.48
2022-07-29T07:38:59.263Z,93874.04
2022-07-29T07:40:03.228Z,93873.38
2022-07-29T07:41:09.413Z,93872.31
2022-07-29T07:42:13.993Z,93871.77
2022-07-29T07:43:17.154Z,93872.02
2022-07-29T07:44:20.533Z,93868.88
2022-07-29T07:45:24.159Z,93869.52
2022-07-29T07:46:27.326Z,93870.99
2022-07-29T07:47:30.520Z,93867.88
2022-07-29T07:48:37.531Z,93871.78
2022-07-29T07:49:40.762Z,93872.30
2022-07-29T07:50:45.388Z,93867.46
2022-07-29T07:51:50.721Z,93872.50
2022-07-29T07:52:56.239Z,93871.37
2022-07-29T07:53:59.724Z,93871.24
2022-07-29T07:55:02.996Z,93870.12
2022-07-29T07:56:12.431Z,93866.61
2022-07-29T07:57:16.540Z,93867.35
2022-07-29T07:58:19.704Z,93870.02
2022-07-29T07:59:22.893Z,93870.23
2022-07-29T08:00:26.083Z,93866.48
2022-07-29T08:01:29.240Z,93863.10
2022-07-29T08:02:52.116Z,93869.42
2022-07-29T08:03:55.431Z,93866.84
2022-07-29T08:04:58.450Z,93868.97
2022-07-29T08:06:02.073Z,93867.70
2022-07-29T08:07:05.634Z,93866.71
2022-07-29T08:08:09.259Z,93865.91
2022-07-29T08:09:28.084Z,93866.80
2022-07-29T08:10:52.174Z,93871.38
2022-07-29T08:11:56.164Z,93871.23
2022-07-29T08:13:00.691Z,93869.12
2022-07-29T08:14:06.567Z,93871.80
2022-07-29T08:15:10.152Z,93875.95
2022-07-29T08:16:13.934Z,93876.86
2022-07-29T08:17:17.507Z,93876.20
2022-07-29T08:18:20.518Z,93878.96
2022-07-29T08:19:23.573Z,93879.03
2022-07-29T08:20:27.738Z,93879.94
2022-07-29T08:21:30.790Z,93882.09
2022-07-29T08:22:33.841Z,93885.26
2022-07-29T08:23:45.961Z,93883.94
2022-07-29T08:24:57.743Z,93884.66
2022-07-29T08:26:00.932Z,93886.36
2022-07-29T08:27:12.855Z,93885.72
2022-07-29T08:28:27.516Z,93886.51
2022-07-29T08:29:30.610Z,93891.92
2022-07-29T08:30:34.988Z,93892.70
2022-07-29T08:31:38.843Z,93892.30
2022-07-29T08:32:57.640Z,93891.67
2022-07-29T08:34:01.137Z,93893.46
2022-07-29T08:35:04.538Z,93893.05
2022-07-29T08:36:08.303Z,93893.91
2022-07-29T08:37:11.470Z,93893.29
2022-07-29T08:38:14.629Z,93895.55
2022-07-29T08:39:17.662Z,93896.33
2022-07-29T08:40:32.081Z,93898.89
2022-07-29T08:41:36.534Z,93899.84
2022-07-29T08:42:39.559Z,93899.55
2022-07-29T08:43:43.003Z,93895.81
2022-07-29T08:44:46.373Z,93894.20
2022-07-29T08:45:51.986Z,93893.38
2022-07-29T08:46:55.263Z,93891.53
2022-07-29T08:47:58.843Z,93892.28
2022-07-29T08:49:03.472Z,93892.52
2022-07-29T08:50:08.566Z,93890.74
2022-07-29T08:51:16.234Z,93890.63
2022-07-29T08:52:20.987Z,93890.59
2022-07-29T08:53:27.900Z,93887.21
2022-07-29T08:54:31.625Z,93890.10
2022-07-29T08:55:35.398Z,93891.93
2022-07-29T08:56:40.712Z,93892.67
2022-07-29T08:57:51.923Z,93897.87
2022-07-29T08:58:59.563Z,93900.83
2022-07-29T09:00:08.129Z,93899.02
2022-07-29T09:01:22.064Z,93900.98
2022-07-29T09:02:29.417Z,93898.86
2022-07-29T09:03:35.703Z,93901.17
2022-07-29T09:04:39.489Z,93898.52
2022-07-29T09:05:47.779Z,93896.35
2022-07-29T09:06:55.555Z,93898.73
2022-07-29T09:07:58.845Z,93896.09
2022-07-29T09:09:02.160Z,93896.33
2022-07-29T09:10:06.542Z,93897.36
2022-07-29T09:11:09.725Z,93893.56
2022-07-29T09:12:13.535Z,93897.34
2022-07-29T09:13:32.863Z,93893.12
2022-07-29T09:14:35.943Z,93891.83
2022-07-29T09:15:39.053Z,93888.09
2022-07-29T09:17:01.142Z,93885.82
2022-07-29T09:18:05.246Z,93887.30
2022-07-29T09:19:31.145Z,93885.66
2022-07-29T09:20:52.927Z,93881.79
2022-07-29T09:22:03.515Z,93883.42
2022-07-29T09:23:09.391Z,93882.52
2022-07-29T09:24:14.269Z,93879.59
2022-07-29T09:25:38.286Z,93880.16
2022-07-29T09:26:47.050Z,93879.30
2022-07-29T09:27:52.158Z,93879.83
2022-07-29T09:28:55.597Z,93881.27
2022-07-29T09:30:06.988Z,93882.36
2022-07-29T09:31:10.272Z,93882.95
2022-07-29T09:32:13.589Z,93880.81
2022-07-29T09:33:16.688Z,93880.77
2022-07-29T09:34:29.656Z,93880.77
2022-07-29T09:35:33.094Z,93876.45
2022-07-29T09:36:56.229Z,93880.37
2022-07-29T09:38:11.868Z,93881.84
2022-07-29T09:39:17.783Z,93880.73
2022-07-29T09:40:23.927Z,93879.92
2022-07-29T09:41:28.189Z,93883.26
2022-07-29T09:42:33.625Z,93886.56
2022-07-29T09:43:37.114Z,93885.41
2022-07-29T09:44:43.498Z,93886.16
2022-07-29T09:45:48.559Z,93880.50
2022-07-29T09:46:59.272Z,93879.46
2022-07-29T09:48:18.423Z,93875.55
2022-07-29T09:49:21.699Z,93876.42
2022-07-29T09:50:44.984Z,93874.94
2022-07-29T09:51:48.685Z,93871.33
2022-07-29T09:52:54.466Z,93873.02
2022-07-29T09:53:57.669Z,93869.97
2022-07-29T09:55:17.843Z,93869.48
2022-07-29T09:56:21.439Z,93870.23
2022-07-29T09:57:30.789Z,93870.71
2022-07-29T09:58:35.146Z,93871.88
2022-07-29T09:59:49.871Z,93871.34
2022-07-29T10:00:56.111Z,93872.39
2022-07-29T10:01:59.469Z,93872.31
2022-07-29T10:03:03.842Z,93872.48
2022-07-29T10:04:07.038Z,93869.58
2022-07-29T10:05:25.147Z,93871.21
2022-07-29T10:06:28.473Z,93872.58
2022-07-29T10:07:53.485Z,93873.94
2022-07-29T10:09:09.672Z,93873.92
2022-07-29T10:10:20.894Z,93874.98
2022-07-29T10:11:24.021Z,93870.29
2022-07-29T10:12:27.165Z,93867.52
2022-07-29T10:13:30.540Z,93868.17
2022-07-29T10:14:34.651Z,93869.73
2022-07-29T10:15:44.630Z,93870.05
2022-07-29T10:16:48.070Z,93872.29
2022-07-29T10:17:52.890Z,93871.23
2022-07-29T10:18:56.633Z,93874.88
2022-07-29T10:19:59.805Z,93876.48
2022-07-29T10:21:03.146Z,93877.45
2022-07-29T10:22:11.199Z,93882.10
2022-07-29T10:23:15.171Z,93879.23
2022-07-29T10:24:18.599Z,93881.27
2022-07-29T10:25:22.287Z,93882.80
2022-07-29T10:26:26.001Z,93877.99
2022-07-29T10:27:29.133Z,93876.47
2022-07-29T10:28:36.185Z,93877.19
2022-07-29T10:29:39.305Z,93875.08
2022-07-29T10:30:45.567Z,93871.65
2022-07-29T10:32:03.430Z,93874.21
2022-07-29T10:33:06.634Z,93872.70
2022-07-29T10:34:20.372Z,93871.11
2022-07-29T10:35:39.202Z,93869.48
2022-07-29T10:37:19.657Z,93872.98
2022-07-29T10:39:09.774Z,93873.46
2022-07-29T10:40:45.737Z,93871.75
2022-07-29T10:41:51.425Z,93873.82
2022-07-29T10:43:02.370Z,93871.23
2022-07-29T10:44:14.769Z,93873.25
2022-07-29T10:45:20.980Z,93870.66
2022-07-29T10:46:25.553Z,93872.09
2022-07-29T10:47:29.313Z,93875.05
2022-07-29T10:48:32.765Z,93873.48
2022-07-29T10:49:35.895Z,93875.04
2022-07-29T10:50:58.091Z,93873.06
2022-07-29T10:52:09.148Z,93870.80
2022-07-29T10:53:12.114Z,93866.42
2022-07-29T10:54:37.285Z,93869.48
2022-07-29T10:55:47.756Z,93868.56
2022-07-29T10:56:51.156Z,93866.45
2022-07-29T10:58:19.522Z,93869.92
2022-07-29T11:00:49.410Z,93869.96
2022-07-29T11:01:54.398Z,93866.56
2022-07-29T11:03:10.507Z,93864.88
2022-07-29T11:04:14.320Z,93862.20
2022-07-29T11:05:22.311Z,93858.59
2022-07-29T11:06:28.221Z,93861.33
2022-07-29T11:07:45.823Z,93858.84
2022-07-29T11:09:16.663Z,93860.55
2022-07-29T11:10:20.172Z,93858.42
2022-07-29T11:11:30.007Z,93857.51
2022-07-29T11:12:39.556Z,93854.09
2022-07-29T11:13:51.281Z,93853.80
2022-07-29T11:14:58.975Z,93850.29
2022-07-29T11:16:02.262Z,93853.59
2022-07-29T11:17:09.194Z,93854.92
2022-07-29T11:18:14.989Z,93855.34
2022-07-29T11:19:29.795Z,93853.01
2022-07-29T11:20:50.130Z,93858.42
2022-07-29T11:21:58.320Z,93856.58
2022-07-29T11:23:02.461Z,93853.74
2022-07-29T11:24:18.606Z,93853.46
2022-07-29T11:25:42.867Z,93854.95
2022-07-29T11:27:17.940Z,93851.42
2022-07-29T11:29:50.423Z,93851.42
2022-07-29T11:30:56.302Z,93848.73
2022-07-29T11:32:18.107Z,93850.19
2022-07-29T11:33:37.407Z,93848.28
2022-07-29T11:35:17.712Z,93848.35
2022-07-29T11:36:28.011Z,93853.42
2022-07-29T11:37:32.094Z,93850.39
2022-07-29T11:38:45.788Z,93852.66
2022-07-29T11:39:54.396Z,93850.64
2022-07-29T11:41:19.122Z,93850.90
2022-07-29T11:43:59.402Z,93850.67
2022-07-29T11:45:41.520Z,93854.41
2022-07-29T11:46:50.519Z,93848.13
2022-07-29T11:47:56.102Z,93846.84
2022-07-29T11:48:59.638Z,93844.86
2022-07-29T11:50:04.938Z,93849.86
2022-07-29T11:51:13.419Z,93847.25
2022-07-29T11:52:16.657Z,93843.86
2022-07-29T11:53:19.837Z,93848.92
2022-07-29T11:54:27.861Z,93837.82
2022-07-29T11:55:37.049Z,93847.14
2022-07-29T11:56:55.182Z,93846.52
2022-07-29T11:58:03.711Z,93846.36
2022-07-29T11:59:10.463Z,93844.41
2022-07-29T12:00:32.229Z,93843.40
2022-07-29T12:01:35.547Z,93837.75
2022-07-29T12:02:48.182Z,93840.75
2022-07-29T12:04:04.508Z,93839.44
2022-07-29T12:05:12.199Z,93838.21
2022-07-29T12:06:17.964Z,93840.39
2022-07-29T12:07:01.387Z,93852.09
2022-07-29T12:07:34.780Z,93834.72
2022-07-29T12:08:43.713Z,93832.88
2022-07-29T12:09:56.803Z,93831.93
2022-07-29T12:11:00.955Z,93829.92
2022-07-29T12:12:05.955Z,93832.16
2022-07-29T12:13:10.280Z,93832.86
2022-07-29T12:14:26.194Z,93826.30
2022-07-29T12:15:39.185Z,93824.22
2022-07-29T12:16:49.544Z,93823.27
2022-07-29T12:17:53.187Z,93827.02
2022-07-29T12:19:00.453Z,93826.23
2022-07-29T12:20:06.257Z,93826.30
2022-07-29T12:21:12.480Z,93823.19
2022-07-29T12:22:27.183Z,93824.52
2022-07-29T12:23:35.421Z,93815.50
2022-07-29T12:24:45.427Z,93812.79
2022-07-29T12:25:49.789Z,93808.41
2022-07-29T12:26:54.074Z,93806.44
2022-07-29T12:28:06.960Z,93806.43
2022-07-29T12:29:20.502Z,93804.10
2022-07-29T12:30:49.828Z,93801.52
2022-07-29T12:31:57.978Z,93800.43
2022-07-29T12:33:01.426Z,93799.98
2022-07-29T12:34:04.743Z,93799.53
2022-07-29T12:35:17.149Z,93796.11
2022-07-29T12:36:20.398Z,93790.64
2022-07-29T12:37:30.947Z,93790.02
2022-07-29T12:38:44.719Z,93792.38
2022-07-29T12:39:48.077Z,93793.00
2022-07-29T12:40:53.093Z,93789.89
2022-07-29T12:42:04.520Z,93791.08
2022-07-29T12:43:12.659Z,93787.42
2022-07-29T12:44:15.965Z,93783.91
2022-07-29T12:45:30.088Z,93785.61
2022-07-29T12:46:33.306Z,93788.81
2022-07-29T12:47:53.329Z,93792.07
2022-07-29T12:48:57.730Z,93793.39
2022-07-29T12:50:24.472Z,93787.15
2022-07-29T12:51:40.645Z,93787.98
2022-07-29T12:52:43.824Z,93779.22
2022-07-29T12:54:17.408Z,93787.95
2022-07-29T12:55:49.909Z,93791.77
2022-07-29T12:57:00.965Z,93785.77
2022-07-29T12:58:04.367Z,93782.11
2022-07-29T12:59:20.132Z,93783.67
2022-07-29T13:00:25.431Z,93787.71
2022-07-29T13:01:37.875Z,93784.23
2022-07-29T13:02:43.678Z,93784.73
2022-07-29T13:03:56.849Z,93785.16
2022-07-29T13:05:02.121Z,93786.16
2022-07-29T13:06:05.314Z,93779.94
2022-07-29T13:07:09.292Z,93779.58
2022-07-29T13:08:20.406Z,93778.65
2022-07-29T13:09:38.317Z,93774.75
2022-07-29T13:10:41.828Z,93773.16
2022-07-29T13:11:50.894Z,93771.72
2022-07-29T13:13:11.416Z,93768.73
2022-07-29T13:14:30.327Z,93771.95
2022-07-29T13:15:35.083Z,93772.33
2022-07-29T13:16:59.510Z,93771.05